Accueil
METAR-TAF:

METAR-TAF

Aéroports :

Telluride Regional Airport

Telluride, Colorado, États-Unis

latitude: 37-57-14N, longitude: 107-54-31W, altitude: 2767 m

Observation

Le bulletin a été fait il y a 18 minutes, à 02:55 UTC
Vent calme
Température -2°C
Humidité 54%
Pression 1026 hPa
Visibilité: 16.1 km
Ciel clair

METAR: KTEX 170255Z AUTO 00000KT 10SM CLR M02/M10 A3029 RMK AO2

Heure: 20:13 (03:13 UTC)

Prévision

Le bulletin a été fait il y a 3 heures et 41 minutes, à 23:32 UTC
Prévision valable du 17 à 00 UTC au 17 à 24 UTC
Vent 10 kt de ouest avec des rafales jusqu'à 15 kt
Visibilité: 10 km
Quelques nuages à une hauteur de 20000 ft
A partir de 17 à 0200 UTC
Vent 4 kt de sud-est
Visibilité: 10 km
Ciel clair
A partir de 17 à 1800 UTC
Vent 6 kt de ouest
Visibilité: 10 km
Quelques nuages à une hauteur de 25000 ft

TAF: KTEX 162332Z 1700/1724 27010G15KT P6SM FEW200 FM170200 13004KT P6SM SKC WS020/33030KT FM171800 27006KT P6SM FEW250

Observations et prévisions météorologiques de plus de 4000 aéroports (messages METAR et TAF).

Les stations disponibles sont représentées par des disques jaunes et rouges sur la carte.

Passer la souris dessus pour voir le nom de la station.

Cliquer dessus pour voir les observations et prévisions météorologiques.

Pour changer de carte: cliquez sur les boutons verts avec une croix noire pour zoomer, sur le bouton vert avec un tiret pour effectuer un zoom arrière, ou sur les flèches vertes pour les cartes adjacentes.


METAR-TAF: